AirNav   Pilot Hours Calculator
 
 722 users online  

96C Fox River Airport
Rochester, Wisconsin, USA

GOING TO ROCHESTER?


FAA INFORMATION EFFECTIVE 07 NOVEMBER 2019

Location

FAA Identifier: 96C
Lat/Long: 42-45-00.0590N 088-15-03.3260W
42-45.000983N 088-15.055433W
42.7500164,-88.2509239
(estimated)
Elevation: 822 ft. / 251 m (estimated)
Variation: 01W (1985)
From city: 2 miles NW of ROCHESTER, WI
Time zone: UTC -6 (UTC -5 during Daylight Saving Time)
Zip code: 53105

Airport Operations

Airport use: Open to the public
Activation date: 10/1970
Control tower: no
ARTCC: CHICAGO CENTER
FSS: GREEN BAY FLIGHT SERVICE STATION
NOTAMs facility: GRB (NOTAM-D service available)
Attendance: MON-FRI 0600-1630
Wind indicator: yes
Segmented circle: no

Airport Communications

CTAF: 122.9
WX AWOS-3 at BUU (4 nm SW): 125.275 (262-757-0907)
WX AWOS-3PT at 57C (6 nm NW): 118.125 (262-642-1845)
WX ASOS at ENW (17 nm SE): PHONE 262-652-7730
WX AWOS-3 at UES (17 nm N): 118.875 (262-521-5226)
WX ASOS at RAC (19 nm E): 121.425 (262-635-0959)
WX ASOS at MKE (20 nm NE): PHONE 414-489-2168

Nearby radio navigation aids

VOR radial/distance  VOR name  Freq  Var
BAEr174/22.1BADGER VOR/DME116.4002E
OBKr339/34.4NORTHBROOK VOR/DME113.0002W
JVLr070/39.4JANESVILLE VOR/DME114.3003E

 
NDB name  Hdg/Dist  Freq  Var  ID
LAKE LAWN080/15.440402WLVV .-.. ...- ...-
ROCK RIVER142/32.937101WRYV .-. -.-- ...-

Airport Services

Parking: tiedowns

Runway Information

Runway 1/19

Dimensions: 2500 x 36 ft. / 762 x 11 m
RWY ASPH IS 10-15'WIDER LAST 300'EA END.
Surface: asphalt, in fair condition
RUNWAY 1  RUNWAY 19
Latitude: 42-44.850833N42-45.262667N
Longitude: 088-15.005333W088-15.039667W
Elevation: 822.0 ft.822.0 ft.
Traffic pattern: leftleft
Markings: basic, in fair conditionbasic, in fair condition
Runway end identifier lights: nono
Obstructions: 62 ft. trees, 500 ft. from runway, 150 ft. right of centerline, 4:1 slope to clear60 ft. tree, 1700 ft. from runway, 125 ft. left of centerline, 25:1 slope to clear

Airport Ownership and Management from official FAA records

Ownership: Privately-owned
Owner: JERRY KAY MEHLHAFF JR.
PO BOX 37
ROCHESTER, WI 53167
Phone 262-534-6315
Manager: JERRY KAY MEHLHAFF JR.
PO BOX 37
ROCHESTER, WI 53167
Phone 262-534-6315

Airport Operational Statistics

Aircraft operations: avg 96/week *
50% transient general aviation
50% local general aviation
* for 12-month period ending 19 July 2018

Additional Remarks

FOR CD CTC CHICAGO ARTCC AT 630-906-8921.
A103 ACFT MANUFACTURED & FLIGHT TESTED AT ARPT.

Instrument Procedures

There are no published instrument procedures at 96C.

Some nearby airports with instrument procedures:

KBUU - Burlington Municipal Airport (4 nm SW)
57C - East Troy Municipal Airport (6 nm NW)
C02 - Grand Geneva Resort Airport (10 nm SW)
KENW - Kenosha Regional Airport (17 nm SE)
KUES - Waukesha County Airport (17 nm N)
KRAC - Batten International Airport (19 nm E)
KMKE - General Mitchell International Airport (20 nm NE)
 
Loc | Ops | Rwys | IFR | FBO | Links
Com | Nav | Svcs | Stats | Notes

General Mitchell International Airport
 
Area around 96C (Fox River Airport)
 
Road maps at: MapQuest Bing Google
 
Aerial photo
WARNING: Photo may not be current or correct
Aerial photo of 96C (Fox River Airport)
Photo by Jeff Koon
Photo taken 22-Aug-2010
looking East.

Do you have a better or more recent aerial photo of Fox River Airport that you would like to share? If so, please send us your photo.

 
Sectional chart

 
Airport distance calculator
Flying to Fox River Airport? Find the distance to fly.

From to 96C

Sunrise and sunset
Times for 19-Nov-2019
 Local
(UTC-6)
 Zulu
(UTC)
Morning civil twilight06:2012:20
Sunrise06:5112:51
Sunset16:2622:26
Evening civil twilight16:5722:57

Current date and time
Zulu (UTC)  20-Nov-2019 04:45:27
Local (UTC-6)  19-Nov-2019 22:45:27
 
METAR
KBUU 
5nm SW 
200435Z AUTO 00000KT 4SM BR BKN016 OVC041 01/01 A2998 RMK AO2 T00100010
K57C 
6nm NW 
200435Z AUTO 00000KT 5SM BR BKN015 OVC029 02/02 A2998 RMK AO2 T00170015
KENW 
17nm SE 
200353Z AUTO 24003KT 6SM BR OVC036 04/02 A2996 RMK AO2 SLP153 T00390022
KUES 
17nm N 
200435Z AUTO 23003KT 10SM SCT014 SCT019 OVC037 01/00 A2998 RMK AO2
KRAC 
19nm E 
200353Z AUTO 00000KT 9SM OVC037 03/00 A2998 RMK AO2 SLP157 T00330000
KMKE 
20nm NE 
200352Z 00000KT 10SM OVC037 04/00 A2996 RMK AO2 SLP152 T00390000
TAF
KENW 
17nm SE 
200323Z 2003/2024 25003KT P6SM OVC035 TEMPO 2003/2006 OVC025 FM200600 00000KT P6SM OVC025 FM200900 VRB03KT P6SM OVC015 FM202000 17006KT P6SM BKN050
KUES 
17nm N 
200325Z 2003/2024 00000KT P6SM OVC035 TEMPO 2004/2007 OVC015 FM200700 00000KT 6SM BR OVC007 TEMPO 2007/2010 OVC003 FM201000 00000KT 3/4SM BR OVC003 FM201600 00000KT 6SM BR OVC005 FM201800 VRB04KT P6SM BKN010 FM202000 17005KT P6SM BKN040
KMKE 
20nm NE 
200323Z 2003/2106 28003KT P6SM OVC035 TEMPO 2004/2006 OVC025 FM200600 VRB03KT P6SM OVC025 FM200900 00000KT P6SM OVC015 TEMPO 2011/2015 5SM BR OVC005 FM201500 VRB05KT P6SM SCT007 OVC015 FM202000 15007KT P6SM BKN040 FM210500 16012G20KT P6SM OVC035
NOTAMs
Click for the latest NOTAMs
NOTAMs are issued by the DoD/FAA and will open in a separate window not controlled by AirNav.

 

 
 

Would you like to see your business listed on this page?

 If your business provides an interesting product or service to pilots, flight crews, aircraft, or users of the Fox River Airport, you should consider listing it here.  To start the listing process, click on the button below
 
Add a business
 

Other Pages about Fox River Airport

Page from the Wisconsin airport directory (PDF)
 
Update a link
 
Copyright © AirNav, LLC. All rights reserved. Privacy Policy  Contact